createdAt,value
2023-11-11T00:01:11.470Z,30.48
2023-11-11T00:03:38.371Z,32.85
2023-11-11T00:06:05.981Z,32.95
2023-11-11T00:08:35.902Z,32.65
2023-11-11T00:11:02.872Z,33.22
2023-11-11T00:13:29.526Z,33.20
2023-11-11T00:15:56.398Z,27.80
2023-11-11T00:18:23.063Z,30.23
2023-11-11T00:20:49.731Z,31.17
2023-11-11T00:23:17.068Z,37.00
2023-11-11T00:25:44.949Z,32.88
2023-11-11T00:28:11.662Z,29.35
2023-11-11T00:30:42.268Z,31.98
2023-11-11T00:33:09.923Z,28.33
2023-11-11T00:35:36.601Z,29.20
2023-11-11T00:38:05.091Z,28.23
2023-11-11T00:40:31.632Z,28.77
2023-11-11T00:42:58.167Z,27.02
2023-11-11T00:45:24.734Z,28.45
2023-11-11T00:47:51.550Z,27.75
2023-11-11T00:50:18.131Z,27.75
2023-11-11T00:52:44.711Z,27.42
2023-11-11T00:55:11.932Z,27.25
2023-11-11T00:57:40.409Z,25.95
2023-11-11T01:00:11.371Z,27.55
2023-11-11T01:02:38.292Z,25.30
2023-11-11T01:05:05.377Z,25.85
2023-11-11T01:07:31.988Z,25.10
2023-11-11T01:09:58.549Z,26.17
2023-11-11T01:12:25.207Z,26.08
2023-11-11T01:14:51.812Z,24.08
2023-11-11T01:17:19.954Z,25.50
2023-11-11T01:19:47.649Z,24.15
2023-11-11T01:22:14.978Z,23.95
2023-11-11T01:24:42.291Z,24.73
2023-11-11T01:27:09.365Z,21.08
2023-11-11T01:29:35.973Z,24.52
2023-11-11T01:32:02.592Z,24.98
2023-11-11T01:34:29.222Z,24.05
2023-11-11T01:36:57.445Z,23.00
2023-11-11T01:39:24.052Z,22.45
2023-11-11T01:41:50.591Z,23.35
2023-11-11T01:44:17.789Z,22.20
2023-11-11T01:46:45.766Z,22.27
2023-11-11T01:49:13.116Z,20.88
2023-11-11T01:51:41.011Z,20.02
2023-11-11T01:54:07.673Z,19.77
2023-11-11T01:56:35.079Z,20.10
2023-11-11T01:59:02.267Z,20.33
2023-11-11T02:01:28.916Z,20.80
2023-11-11T02:03:56.238Z,19.17
2023-11-11T02:06:22.973Z,20.75
2023-11-11T02:08:51.116Z,22.02
2023-11-11T02:11:18.034Z,20.80
2023-11-11T02:13:44.958Z,18.27
2023-11-11T02:16:11.823Z,18.35
2023-11-11T02:18:38.527Z,19.35
2023-11-11T02:21:05.237Z,18.73
2023-11-11T02:23:36.246Z,18.35
2023-11-11T02:26:04.846Z,18.08
2023-11-11T02:28:32.013Z,17.05
2023-11-11T02:30:58.799Z,20.63
2023-11-11T02:33:25.832Z,17.42
2023-11-11T02:35:52.655Z,18.35
2023-11-11T02:38:19.238Z,18.45
2023-11-11T02:40:45.814Z,16.70
2023-11-11T02:43:12.794Z,20.48
2023-11-11T02:45:39.670Z,16.70
2023-11-11T02:48:07.839Z,18.05
2023-11-11T02:50:34.609Z,15.27
2023-11-11T02:53:01.176Z,17.25
2023-11-11T02:55:28.454Z,16.80
2023-11-11T02:57:55.336Z,16.52
2023-11-11T03:00:22.556Z,15.93
2023-11-11T03:02:49.417Z,14.07
2023-11-11T03:05:16.086Z,16.23
2023-11-11T03:07:42.700Z,16.85
2023-11-11T03:10:11.333Z,15.48
2023-11-11T03:12:38.269Z,13.95
2023-11-11T03:15:05.395Z,14.98
2023-11-11T03:17:32.580Z,15.25
2023-11-11T03:20:00.351Z,14.60
2023-11-11T03:22:27.518Z,13.45
2023-11-11T03:24:55.089Z,12.55
2023-11-11T03:27:21.683Z,13.85
2023-11-11T03:29:48.492Z,12.52
2023-11-11T03:32:15.039Z,13.05
2023-11-11T03:34:41.701Z,13.38
2023-11-11T03:37:08.909Z,14.13
2023-11-11T03:39:35.485Z,12.90
2023-11-11T03:42:02.105Z,13.35
2023-11-11T03:44:29.080Z,13.32
2023-11-11T03:46:56.519Z,11.68
2023-11-11T03:49:23.130Z,13.02
2023-11-11T03:51:49.732Z,12.63
2023-11-11T03:54:17.337Z,11.82
2023-11-11T03:56:45.659Z,11.63
2023-11-11T03:59:12.198Z,11.50
2023-11-11T04:01:38.880Z,15.38
2023-11-11T04:04:05.660Z,9.10
2023-11-11T04:06:32.279Z,11.52
2023-11-11T04:08:58.865Z,11.32
2023-11-11T04:11:25.572Z,12.10
2023-11-11T04:13:52.181Z,10.73
2023-11-11T04:16:19.317Z,10.73
2023-11-11T04:18:45.998Z,11.23
2023-11-11T04:21:13.469Z,11.13
2023-11-11T04:23:43.317Z,10.27
2023-11-11T04:26:09.933Z,9.27
2023-11-11T04:28:36.556Z,10.07
2023-11-11T04:31:03.186Z,10.75
2023-11-11T04:33:30.206Z,8.98
2023-11-11T04:35:56.892Z,10.07
2023-11-11T04:38:26.610Z,9.43
2023-11-11T04:40:54.991Z,9.38
2023-11-11T04:43:21.540Z,10.02
2023-11-11T04:45:49.324Z,9.55
2023-11-11T04:48:16.086Z,9.30
2023-11-11T04:50:43.280Z,7.38
2023-11-11T04:53:09.817Z,9.88
2023-11-11T04:55:37.507Z,8.95
2023-11-11T04:58:04.931Z,8.25
2023-11-11T05:00:32.190Z,8.70
2023-11-11T05:02:58.901Z,8.82
2023-11-11T05:05:25.563Z,7.13
2023-11-11T05:07:52.091Z,8.98
2023-11-11T05:10:18.751Z,7.53
2023-11-11T05:12:48.443Z,7.60
2023-11-11T05:15:15.998Z,7.57
2023-11-11T05:17:47.382Z,6.85
2023-11-11T05:20:15.499Z,7.93
2023-11-11T05:22:42.438Z,7.80
2023-11-11T05:25:11.357Z,7.43
2023-11-11T05:27:38.085Z,7.63
2023-11-11T05:30:06.097Z,7.22
2023-11-11T05:32:32.812Z,7.40
2023-11-11T05:34:59.634Z,6.55
2023-11-11T05:37:26.499Z,6.55
2023-11-11T05:39:53.178Z,6.50
2023-11-11T05:42:20.162Z,6.53
2023-11-11T05:44:46.777Z,5.50
2023-11-11T05:47:14.121Z,6.22
2023-11-11T05:49:46.126Z,6.28
2023-11-11T05:52:12.881Z,6.50
2023-11-11T05:54:39.476Z,6.28
2023-11-11T05:57:06.203Z,5.97
2023-11-11T05:59:32.777Z,5.03
2023-11-11T06:01:59.352Z,5.25
2023-11-11T06:04:26.671Z,6.60
2023-11-11T06:06:56.463Z,7.25
2023-11-11T06:09:25.460Z,4.70
2023-11-11T06:11:52.144Z,5.68
2023-11-11T06:14:21.549Z,5.68
2023-11-11T06:16:48.247Z,4.82
2023-11-11T06:19:15.895Z,5.88
2023-11-11T06:21:42.526Z,3.83
2023-11-11T06:24:09.952Z,4.18
2023-11-11T06:26:38.126Z,4.20
2023-11-11T06:29:07.513Z,4.88
2023-11-11T06:31:34.330Z,4.22
2023-11-11T06:34:02.059Z,4.20
2023-11-11T06:36:29.331Z,4.57
2023-11-11T06:38:56.092Z,3.92
2023-11-11T06:41:23.884Z,5.32
2023-11-11T06:43:50.663Z,4.57
2023-11-11T06:46:17.468Z,3.90
2023-11-11T06:48:44.222Z,5.22
2023-11-11T06:51:11.021Z,4.82
2023-11-11T06:53:39.565Z,7.15
2023-11-11T06:56:06.961Z,11.68
2023-11-11T06:58:33.651Z,14.88
2023-11-11T07:01:00.619Z,22.80
2023-11-11T07:03:29.724Z,23.83
2023-11-11T07:05:57.376Z,24.10
2023-11-11T07:08:24.061Z,26.38
2023-11-11T07:10:50.661Z,25.70
2023-11-11T07:13:19.014Z,27.33
2023-11-11T07:15:45.988Z,34.00
2023-11-11T07:18:13.429Z,47.38
2023-11-11T07:20:41.164Z,64.55
2023-11-11T07:23:08.079Z,68.13
2023-11-11T07:25:35.323Z,69.65
2023-11-11T07:28:05.683Z,73.63
2023-11-11T07:30:32.549Z,73.28
2023-11-11T07:33:02.126Z,67.03
2023-11-11T07:35:29.958Z,77.90
2023-11-11T07:37:57.129Z,82.53
2023-11-11T07:40:26.617Z,95.15
2023-11-11T07:42:54.294Z,77.65
2023-11-11T07:45:24.766Z,79.30
2023-11-11T07:47:52.766Z,79.63
2023-11-11T07:50:20.670Z,74.03
2023-11-11T07:52:47.515Z,71.53
2023-11-11T07:55:14.129Z,72.35
2023-11-11T08:00:16.899Z,59.75
2023-11-11T08:02:43.811Z,62.45
2023-11-11T08:05:10.973Z,57.83
2023-11-11T08:07:39.202Z,52.08
2023-11-11T08:10:07.509Z,58.20
2023-11-11T08:12:34.556Z,57.80
2023-11-11T08:15:01.744Z,62.00
2023-11-11T08:17:28.540Z,59.53
2023-11-11T08:19:55.156Z,60.25
2023-11-11T08:22:21.761Z,60.28
2023-11-11T08:24:48.408Z,63.47
2023-11-11T08:27:15.029Z,57.72
2023-11-11T08:29:41.581Z,57.25
2023-11-11T08:32:08.978Z,56.95
2023-11-11T08:34:35.664Z,55.05
2023-11-11T08:37:05.569Z,55.55
2023-11-11T08:39:32.378Z,54.70
2023-11-11T08:41:59.477Z,55.75
2023-11-11T08:44:26.027Z,56.88
2023-11-11T08:46:52.688Z,55.03
2023-11-11T08:49:19.537Z,59.78
2023-11-11T08:51:46.225Z,56.05
2023-11-11T08:54:12.821Z,57.20
2023-11-11T08:56:39.373Z,57.38
2023-11-11T08:59:07.506Z,61.45
2023-11-11T09:01:34.655Z,64.82
2023-11-11T09:04:01.759Z,74.07
2023-11-11T09:06:28.833Z,59.72
2023-11-11T09:08:55.790Z,66.65
2023-11-11T09:11:22.436Z,65.20
2023-11-11T09:13:49.130Z,68.10
2023-11-11T09:16:16.714Z,61.75
2023-11-11T09:18:43.631Z,67.53
2023-11-11T09:21:10.475Z,71.22
2023-11-11T09:23:37.766Z,62.78
2023-11-11T09:26:06.532Z,63.22
2023-11-11T09:28:36.119Z,54.75
2023-11-11T09:31:02.865Z,56.20
2023-11-11T09:33:31.644Z,55.10
2023-11-11T09:35:58.309Z,61.78
2023-11-11T09:38:24.890Z,63.35
2023-11-11T09:40:51.558Z,65.50
2023-11-11T09:43:19.358Z,63.72
2023-11-11T09:45:46.321Z,67.85
2023-11-11T09:48:13.630Z,62.28
2023-11-11T09:50:40.735Z,66.40
2023-11-11T09:53:07.580Z,57.95
2023-11-11T09:55:34.706Z,63.03
2023-11-11T09:58:02.427Z,56.28
2023-11-11T10:00:31.923Z,63.60
2023-11-11T10:03:00.376Z,56.65
2023-11-11T10:05:27.190Z,55.03
2023-11-11T10:07:56.647Z,50.85
2023-11-11T10:10:25.466Z,51.05
2023-11-11T10:12:52.261Z,49.97
2023-11-11T10:15:18.919Z,46.78
2023-11-11T10:17:45.538Z,48.85
2023-11-11T10:20:16.941Z,50.20
2023-11-11T10:22:45.777Z,46.67
2023-11-11T10:25:19.365Z,45.15
2023-11-11T10:27:50.894Z,43.70
2023-11-11T10:30:25.750Z,46.72
2023-11-11T10:32:56.600Z,43.38
2023-11-11T10:35:25.793Z,42.78
2023-11-11T10:37:52.928Z,40.03
2023-11-11T10:40:20.086Z,41.20
2023-11-11T10:42:50.842Z,37.22
2023-11-11T10:45:18.085Z,39.42
2023-11-11T10:47:45.893Z,35.83
2023-11-11T10:50:13.590Z,37.22
2023-11-11T10:52:41.100Z,35.38
2023-11-11T10:55:08.997Z,39.92
2023-11-11T10:57:36.363Z,34.55
2023-11-11T11:00:05.957Z,37.38
2023-11-11T11:02:32.894Z,35.95
2023-11-11T11:05:06.118Z,34.45
2023-11-11T11:07:44.782Z,32.45
2023-11-11T11:10:30.034Z,31.30
2023-11-11T11:13:02.633Z,31.60
2023-11-11T11:15:30.019Z,33.95
2023-11-11T11:17:56.678Z,29.95
2023-11-11T11:20:26.280Z,28.83
2023-11-11T11:23:05.813Z,28.83
2023-11-11T11:25:35.620Z,30.52
2023-11-11T11:28:12.036Z,27.92
2023-11-11T11:30:56.251Z,27.17
2023-11-11T11:33:25.732Z,24.70
2023-11-11T11:36:05.797Z,24.80
2023-11-11T11:38:41.948Z,25.73
2023-11-11T11:41:21.268Z,26.25
2023-11-11T11:43:57.505Z,20.55
2023-11-11T11:46:25.222Z,24.50
2023-11-11T11:48:52.446Z,21.52
2023-11-11T11:51:21.093Z,22.92
2023-11-11T11:53:55.243Z,21.88
2023-11-11T11:56:32.896Z,22.73
2023-11-11T11:59:03.238Z,24.35
2023-11-11T12:01:32.182Z,23.02
2023-11-11T12:04:00.615Z,23.88
2023-11-11T12:06:28.330Z,22.48
2023-11-11T12:09:00.422Z,23.33
2023-11-11T12:11:31.494Z,20.98
2023-11-11T12:14:04.425Z,24.20
2023-11-11T12:16:41.877Z,20.25
2023-11-11T12:19:15.759Z,20.70
2023-11-11T12:24:17.181Z,21.55
2023-11-11T12:26:45.118Z,19.95
2023-11-11T12:29:12.449Z,20.92
2023-11-11T12:31:49.702Z,21.55
2023-11-11T12:34:19.700Z,22.52
2023-11-11T12:36:47.683Z,16.77
2023-11-11T12:39:20.737Z,19.13
2023-11-11T12:41:53.385Z,17.17
2023-11-11T12:44:21.191Z,16.52
2023-11-11T12:46:49.537Z,18.58
2023-11-11T12:49:21.281Z,16.95
2023-11-11T12:51:48.388Z,15.35
2023-11-11T12:54:17.803Z,15.38
2023-11-11T12:56:48.517Z,17.13
2023-11-11T12:59:15.295Z,17.35
2023-11-11T13:01:42.005Z,15.93
2023-11-11T13:04:10.859Z,14.18
2023-11-11T13:06:37.488Z,17.88
2023-11-11T13:09:20.878Z,15.05
2023-11-11T13:11:49.098Z,14.68
2023-11-11T13:14:20.457Z,19.52
2023-11-11T13:16:51.986Z,20.73
2023-11-11T13:19:19.647Z,27.38
2023-11-11T13:21:48.537Z,32.58
2023-11-11T13:24:16.074Z,30.13
2023-11-11T13:26:43.218Z,30.60
2023-11-11T13:29:09.950Z,31.90
2023-11-11T13:31:36.778Z,29.92
2023-11-11T13:34:03.553Z,33.10
2023-11-11T13:36:35.760Z,30.65
2023-11-11T13:39:03.421Z,31.63
2023-11-11T13:41:35.621Z,31.33
2023-11-11T13:44:02.372Z,29.63
2023-11-11T13:46:32.281Z,28.85
2023-11-11T13:49:01.241Z,31.58
2023-11-11T13:51:28.015Z,26.73
2023-11-11T13:53:57.696Z,29.25
2023-11-11T13:56:25.465Z,31.02
2023-11-11T13:58:56.104Z,27.38
2023-11-11T14:01:24.409Z,26.65
2023-11-11T14:03:51.761Z,25.55
2023-11-11T14:06:19.292Z,23.52
2023-11-11T14:08:46.047Z,27.52
2023-11-11T14:11:12.690Z,25.83
2023-11-11T14:13:40.828Z,26.58
2023-11-11T14:16:08.475Z,25.33
2023-11-11T14:18:35.274Z,25.35
2023-11-11T14:21:03.236Z,25.95
2023-11-11T14:23:30.681Z,23.25
2023-11-11T14:25:57.533Z,23.73
2023-11-11T14:28:24.608Z,20.13
2023-11-11T14:30:51.704Z,21.45
2023-11-11T14:33:22.043Z,23.80
2023-11-11T14:35:48.758Z,22.65
2023-11-11T14:38:16.467Z,19.70
2023-11-11T14:40:43.435Z,21.30
2023-11-11T14:43:10.392Z,21.55
2023-11-11T14:45:36.924Z,18.67
2023-11-11T14:48:03.644Z,19.85
2023-11-11T14:50:30.228Z,19.73
2023-11-11T14:52:56.847Z,20.67
2023-11-11T14:55:25.608Z,18.23
2023-11-11T14:57:55.425Z,21.50
2023-11-11T15:00:25.509Z,20.77
2023-11-11T15:02:56.607Z,18.48
2023-11-11T15:05:24.174Z,18.35
2023-11-11T15:07:51.637Z,18.27
2023-11-11T15:10:22.364Z,17.42
2023-11-11T15:12:50.767Z,19.10
2023-11-11T15:15:17.927Z,18.67
2023-11-11T15:17:46.342Z,14.70
2023-11-11T15:20:15.782Z,16.17
2023-11-11T15:22:43.609Z,15.45
2023-11-11T15:25:15.372Z,15.13
2023-11-11T15:27:43.971Z,18.35
2023-11-11T15:30:11.841Z,17.48
2023-11-11T15:32:39.571Z,20.48
2023-11-11T15:35:07.124Z,24.20
2023-11-11T15:37:34.178Z,25.00
2023-11-11T15:40:01.795Z,23.95
2023-11-11T15:42:28.397Z,23.55
2023-11-11T15:44:55.001Z,24.45
2023-11-11T15:47:21.680Z,24.17
2023-11-11T15:49:48.400Z,28.23
2023-11-11T15:52:15.558Z,31.42
2023-11-11T15:54:42.114Z,32.42
2023-11-11T15:57:08.802Z,34.28
2023-11-11T15:59:35.349Z,37.40
2023-11-11T16:02:02.127Z,40.45
2023-11-11T16:04:28.769Z,36.00
2023-11-11T16:06:55.342Z,40.95
2023-11-11T16:09:24.382Z,41.28
2023-11-11T16:11:53.683Z,36.25
2023-11-11T16:14:22.086Z,36.75
2023-11-11T16:16:48.787Z,39.72
2023-11-11T16:19:15.533Z,38.30
2023-11-11T16:21:42.200Z,36.58
2023-11-11T16:24:20.677Z,37.25
2023-11-11T16:26:53.426Z,35.42
2023-11-11T16:29:20.050Z,39.50
2023-11-11T16:31:46.681Z,43.58
2023-11-11T16:34:14.702Z,41.40
2023-11-11T16:36:41.504Z,36.92
2023-11-11T16:39:08.162Z,33.50
2023-11-11T16:41:34.785Z,35.10
2023-11-11T16:44:05.863Z,33.13
2023-11-11T16:46:32.986Z,29.83
2023-11-11T16:48:59.713Z,33.10
2023-11-11T16:51:26.359Z,30.13
2023-11-11T16:53:56.117Z,29.95
2023-11-11T16:56:23.552Z,30.27
2023-11-11T16:58:50.540Z,31.70
2023-11-11T17:01:17.220Z,31.23
2023-11-11T17:03:43.979Z,30.35
2023-11-11T17:06:10.853Z,29.70
2023-11-11T17:08:38.784Z,30.75
2023-11-11T17:11:08.996Z,29.15
2023-11-11T17:13:43.002Z,28.95
2023-11-11T17:16:12.532Z,27.23
2023-11-11T17:18:39.198Z,29.92
2023-11-11T17:21:06.098Z,28.13
2023-11-11T17:23:32.881Z,28.55
2023-11-11T17:26:00.141Z,25.00
2023-11-11T17:28:30.374Z,26.73
2023-11-11T17:30:58.254Z,25.23
2023-11-11T17:33:35.171Z,26.63
2023-11-11T17:36:08.553Z,27.67
2023-11-11T17:38:38.179Z,26.65
2023-11-11T17:41:13.007Z,29.45
2023-11-11T17:43:40.280Z,28.13
2023-11-11T17:46:06.941Z,24.88
2023-11-11T17:48:34.407Z,23.85
2023-11-11T17:51:01.186Z,25.83
2023-11-11T17:53:27.861Z,24.95
2023-11-11T17:55:58.558Z,23.10
2023-11-11T17:58:25.184Z,24.10
2023-11-11T18:00:51.800Z,21.13
2023-11-11T18:03:18.458Z,23.55
2023-11-11T18:05:45.087Z,25.40
2023-11-11T18:08:13.219Z,21.25
2023-11-11T18:10:39.846Z,21.02
2023-11-11T18:13:08.279Z,22.40
2023-11-11T18:15:34.885Z,21.20
2023-11-11T18:18:01.767Z,20.48
2023-11-11T18:20:28.423Z,23.10
2023-11-11T18:22:55.795Z,17.52
2023-11-11T18:25:22.488Z,18.88
2023-11-11T18:27:49.206Z,18.55
2023-11-11T18:30:17.334Z,18.17
2023-11-11T18:32:44.123Z,16.17
2023-11-11T18:35:10.829Z,16.05
2023-11-11T18:37:37.507Z,18.20
2023-11-11T18:40:09.238Z,18.13
2023-11-11T18:42:35.873Z,16.40
2023-11-11T18:45:02.519Z,16.95
2023-11-11T18:47:29.147Z,16.17
2023-11-11T18:49:56.339Z,17.35
2023-11-11T18:52:25.386Z,16.77
2023-11-11T18:54:52.022Z,16.50
2023-11-11T18:57:18.624Z,15.82
2023-11-11T18:59:45.465Z,17.48
2023-11-11T19:02:12.075Z,13.55
2023-11-11T19:04:39.186Z,13.73
2023-11-11T19:07:06.415Z,15.95
2023-11-11T19:09:33.007Z,14.55
2023-11-11T19:11:59.591Z,17.90
2023-11-11T19:14:26.335Z,16.02
2023-11-11T19:16:52.959Z,14.80
2023-11-11T19:19:19.616Z,16.25
2023-11-11T19:21:46.198Z,14.70
2023-11-11T19:24:14.808Z,17.58
2023-11-11T19:26:41.781Z,15.93
2023-11-11T19:29:08.763Z,16.30
2023-11-11T19:31:35.889Z,16.58
2023-11-11T19:34:02.882Z,18.70
2023-11-11T19:36:29.763Z,16.00
2023-11-11T19:38:56.989Z,16.85
2023-11-11T19:41:23.954Z,16.05
2023-11-11T19:43:50.793Z,16.48
2023-11-11T19:46:18.597Z,15.18
2023-11-11T19:48:46.310Z,18.02
2023-11-11T19:51:21.239Z,15.73
2023-11-11T19:53:47.892Z,14.50
2023-11-11T19:56:14.983Z,13.88
2023-11-11T19:58:41.896Z,15.68
2023-11-11T20:01:09.022Z,13.48
2023-11-11T20:03:35.915Z,13.57
2023-11-11T20:06:02.652Z,15.90
2023-11-11T20:08:29.261Z,13.82
2023-11-11T20:10:56.311Z,14.32
2023-11-11T20:13:23.757Z,15.50
2023-11-11T20:15:50.358Z,15.18
2023-11-11T20:18:17.075Z,13.75
2023-11-11T20:20:43.848Z,13.30
2023-11-11T20:23:10.532Z,14.35
2023-11-11T20:25:37.634Z,12.88
2023-11-11T20:28:04.426Z,16.30
2023-11-11T20:30:32.100Z,14.68
2023-11-11T20:33:00.593Z,14.35
2023-11-11T20:35:29.104Z,13.82
2023-11-11T20:37:55.745Z,13.25
2023-11-11T20:40:23.117Z,14.98
2023-11-11T20:42:52.530Z,17.70
2023-11-11T20:45:19.191Z,14.63
2023-11-11T20:47:45.833Z,16.15
2023-11-11T20:50:15.041Z,14.85
2023-11-11T20:52:45.867Z,14.48
2023-11-11T20:55:18.684Z,14.63
2023-11-11T20:57:45.859Z,16.58
2023-11-11T21:00:13.955Z,16.77
2023-11-11T21:02:41.828Z,14.52
2023-11-11T21:05:12.575Z,18.10
2023-11-11T21:07:40.372Z,14.45
2023-11-11T21:10:09.038Z,16.63
2023-11-11T21:12:35.604Z,14.43
2023-11-11T21:15:03.460Z,14.85
2023-11-11T21:17:31.339Z,16.23
2023-11-11T21:19:58.495Z,15.23
2023-11-11T21:22:25.461Z,14.80
2023-11-11T21:24:52.177Z,16.05
2023-11-11T21:27:18.693Z,13.68
2023-11-11T21:29:47.109Z,13.05
2023-11-11T21:32:14.550Z,13.75
2023-11-11T21:34:47.145Z,18.13
2023-11-11T21:37:13.761Z,14.98
2023-11-11T21:39:41.127Z,13.15
2023-11-11T21:42:07.752Z,13.70
2023-11-11T21:44:34.303Z,15.13
2023-11-11T21:47:00.918Z,13.88
2023-11-11T21:49:27.613Z,14.57
2023-11-11T21:51:54.490Z,11.95
2023-11-11T21:54:21.215Z,12.45
2023-11-11T21:56:47.821Z,11.45
2023-11-11T21:59:14.597Z,10.82
2023-11-11T22:01:44.515Z,10.93
2023-11-11T22:04:11.584Z,9.60
2023-11-11T22:06:38.619Z,12.27
2023-11-11T22:09:06.887Z,11.48
2023-11-11T22:11:34.754Z,10.57
2023-11-11T22:14:01.520Z,11.32
2023-11-11T22:16:28.250Z,10.88
2023-11-11T22:18:54.944Z,9.60
2023-11-11T22:21:21.628Z,9.57
2023-11-11T22:23:48.294Z,10.43
2023-11-11T22:26:18.252Z,9.75
2023-11-11T22:28:46.279Z,8.32
2023-11-11T22:31:13.348Z,10.65
2023-11-11T22:33:40.232Z,9.93
2023-11-11T22:36:10.811Z,8.85
2023-11-11T22:38:40.692Z,8.73
2023-11-11T22:41:07.384Z,8.75
2023-11-11T22:43:34.840Z,10.57
2023-11-11T22:46:03.873Z,8.57
2023-11-11T22:48:30.788Z,8.70
2023-11-11T22:50:58.752Z,7.72
2023-11-11T22:53:26.093Z,8.27
2023-11-11T22:55:52.965Z,8.82
2023-11-11T22:58:20.502Z,8.80
2023-11-11T23:00:47.263Z,7.97
2023-11-11T23:03:14.992Z,8.35
2023-11-11T23:05:43.518Z,8.07
2023-11-11T23:08:11.637Z,6.05
2023-11-11T23:10:40.482Z,6.78
2023-11-11T23:13:07.610Z,6.80
2023-11-11T23:15:34.867Z,8.43
2023-11-11T23:18:01.781Z,7.18
2023-11-11T23:20:29.598Z,7.18
2023-11-11T23:22:57.091Z,8.30
2023-11-11T23:25:23.943Z,6.07
2023-11-11T23:27:51.032Z,7.00
2023-11-11T23:30:18.071Z,6.97
2023-11-11T23:32:44.745Z,6.32
2023-11-11T23:35:12.679Z,6.75
2023-11-11T23:37:39.434Z,8.32
2023-11-11T23:40:07.271Z,8.77
2023-11-11T23:42:34.051Z,9.25
2023-11-11T23:45:00.941Z,9.77
2023-11-11T23:47:27.974Z,13.88
2023-11-11T23:49:55.308Z,13.45
2023-11-11T23:52:23.271Z,10.88
2023-11-11T23:54:49.888Z,13.32
2023-11-11T23:57:16.505Z,13.80
2023-11-11T23:59:43.074Z,12.70
